sensor_id;sensor_type;location;lat;lon;timestamp;temperature;humidity
41324;DHT22;27073;51.128;4.220;2023-05-02T00:01:57;14.30;89.30
41324;DHT22;27073;51.128;4.220;2023-05-02T00:04:23;14.40;90.70
41324;DHT22;27073;51.128;4.220;2023-05-02T00:06:51;14.10;92.90
41324;DHT22;27073;51.128;4.220;2023-05-02T00:09:17;13.70;98.00
41324;DHT22;27073;51.128;4.220;2023-05-02T00:11:43;13.70;99.50
41324;DHT22;27073;51.128;4.220;2023-05-02T00:14:09;13.70;99.90
41324;DHT22;27073;51.128;4.220;2023-05-02T00:16:35;13.60;99.90
41324;DHT22;27073;51.128;4.220;2023-05-02T00:19:01;13.70;99.60
41324;DHT22;27073;51.128;4.220;2023-05-02T00:21:26;13.80;99.00
41324;DHT22;27073;51.128;4.220;2023-05-02T00:23:54;13.70;99.30
41324;DHT22;27073;51.128;4.220;2023-05-02T00:26:22;13.60;99.90
41324;DHT22;27073;51.128;4.220;2023-05-02T00:28:49;13.40;99.90
41324;DHT22;27073;51.128;4.220;2023-05-02T00:31:15;13.30;99.90
41324;DHT22;27073;51.128;4.220;2023-05-02T00:33:41;13.30;99.90
41324;DHT22;27073;51.128;4.220;2023-05-02T00:36:14;13.30;99.90
41324;DHT22;27073;51.128;4.220;2023-05-02T00:38:40;13.40;99.90
41324;DHT22;27073;51.128;4.220;2023-05-02T00:41:05;13.40;99.90
41324;DHT22;27073;51.128;4.220;2023-05-02T00:43:31;13.70;99.90
41324;DHT22;27073;51.128;4.220;2023-05-02T00:45:57;13.30;99.90
41324;DHT22;27073;51.128;4.220;2023-05-02T00:48:24;13.30;99.90
41324;DHT22;27073;51.128;4.220;2023-05-02T00:50:50;13.30;99.90
41324;DHT22;27073;51.128;4.220;2023-05-02T00:53:16;13.50;99.90
41324;DHT22;27073;51.128;4.220;2023-05-02T00:55:43;13.70;99.80
41324;DHT22;27073;51.128;4.220;2023-05-02T00:58:14;13.50;99.90
41324;DHT22;27073;51.128;4.220;2023-05-02T01:06:15;13.50;99.90
41324;DHT22;27073;51.128;4.220;2023-05-02T01:08:51;13.50;99.90
41324;DHT22;27073;51.128;4.220;2023-05-02T01:11:45;13.30;99.90
41324;DHT22;27073;51.128;4.220;2023-05-02T01:14:14;13.40;99.90
41324;DHT22;27073;51.128;4.220;2023-05-02T01:16:42;13.40;99.90
41324;DHT22;27073;51.128;4.220;2023-05-02T01:19:16;13.60;99.40
41324;DHT22;27073;51.128;4.220;2023-05-02T01:21:44;13.60;97.90
41324;DHT22;27073;51.128;4.220;2023-05-02T01:24:21;13.50;97.90
41324;DHT22;27073;51.128;4.220;2023-05-02T01:27:10;13.50;98.60
41324;DHT22;27073;51.128;4.220;2023-05-02T01:29:39;13.50;97.60
41324;DHT22;27073;51.128;4.220;2023-05-02T01:32:07;13.10;99.90
41324;DHT22;27073;51.128;4.220;2023-05-02T01:34:36;13.30;99.90
41324;DHT22;27073;51.128;4.220;2023-05-02T01:37:05;13.30;99.90
41324;DHT22;27073;51.128;4.220;2023-05-02T01:39:32;13.20;99.30
41324;DHT22;27073;51.128;4.220;2023-05-02T01:42:01;13.10;99.90
41324;DHT22;27073;51.128;4.220;2023-05-02T01:44:29;12.90;99.90
41324;DHT22;27073;51.128;4.220;2023-05-02T01:46:55;12.90;99.90
41324;DHT22;27073;51.128;4.220;2023-05-02T01:49:23;12.80;99.90
41324;DHT22;27073;51.128;4.220;2023-05-02T01:51:50;12.90;99.90
41324;DHT22;27073;51.128;4.220;2023-05-02T01:54:19;12.70;99.90
41324;DHT22;27073;51.128;4.220;2023-05-02T01:56:46;12.90;99.90
41324;DHT22;27073;51.128;4.220;2023-05-02T01:59:17;13.00;99.90
41324;DHT22;27073;51.128;4.220;2023-05-02T02:01:44;13.10;99.90
41324;DHT22;27073;51.128;4.220;2023-05-02T02:04:12;13.20;99.90
41324;DHT22;27073;51.128;4.220;2023-05-02T02:06:43;13.30;98.10
41324;DHT22;27073;51.128;4.220;2023-05-02T02:09:10;13.10;99.20
41324;DHT22;27073;51.128;4.220;2023-05-02T02:11:43;13.10;99.00
41324;DHT22;27073;51.128;4.220;2023-05-02T02:14:21;12.80;99.90
41324;DHT22;27073;51.128;4.220;2023-05-02T02:16:48;13.00;99.90
41324;DHT22;27073;51.128;4.220;2023-05-02T02:19:16;12.90;99.30
41324;DHT22;27073;51.128;4.220;2023-05-02T02:21:42;13.10;99.00
41324;DHT22;27073;51.128;4.220;2023-05-02T02:24:12;13.10;97.50
41324;DHT22;27073;51.128;4.220;2023-05-02T02:26:38;13.20;97.00
41324;DHT22;27073;51.128;4.220;2023-05-02T02:29:04;13.10;97.10
41324;DHT22;27073;51.128;4.220;2023-05-02T02:31:34;13.10;97.00
41324;DHT22;27073;51.128;4.220;2023-05-02T02:34:01;13.00;97.60
41324;DHT22;27073;51.128;4.220;2023-05-02T02:41:37;12.80;99.90
41324;DHT22;27073;51.128;4.220;2023-05-02T02:47:26;12.50;99.90
41324;DHT22;27073;51.128;4.220;2023-05-02T02:50:18;12.40;99.90
41324;DHT22;27073;51.128;4.220;2023-05-02T02:52:56;12.50;99.90
41324;DHT22;27073;51.128;4.220;2023-05-02T02:55:39;12.50;99.90
41324;DHT22;27073;51.128;4.220;2023-05-02T03:01:02;12.80;99.90
41324;DHT22;27073;51.128;4.220;2023-05-02T03:03:31;12.70;99.90
41324;DHT22;27073;51.128;4.220;2023-05-02T03:05:58;12.60;99.90
41324;DHT22;27073;51.128;4.220;2023-05-02T03:08:24;12.80;99.90
41324;DHT22;27073;51.128;4.220;2023-05-02T03:10:50;12.90;99.90
41324;DHT22;27073;51.128;4.220;2023-05-02T03:13:17;13.00;99.90
41324;DHT22;27073;51.128;4.220;2023-05-02T03:16:28;13.10;99.80
41324;DHT22;27073;51.128;4.220;2023-05-02T03:18:52;13.00;99.90
41324;DHT22;27073;51.128;4.220;2023-05-02T03:21:18;13.20;98.80
41324;DHT22;27073;51.128;4.220;2023-05-02T03:23:44;13.10;97.60
41324;DHT22;27073;51.128;4.220;2023-05-02T03:26:10;13.00;98.40
41324;DHT22;27073;51.128;4.220;2023-05-02T03:28:36;13.20;98.70
41324;DHT22;27073;51.128;4.220;2023-05-02T03:31:04;13.10;97.30
41324;DHT22;27073;51.128;4.220;2023-05-02T03:33:35;13.10;98.70
41324;DHT22;27073;51.128;4.220;2023-05-02T03:36:01;13.10;98.20
41324;DHT22;27073;51.128;4.220;2023-05-02T03:38:29;13.30;97.30
41324;DHT22;27073;51.128;4.220;2023-05-02T03:40:56;13.30;95.50
41324;DHT22;27073;51.128;4.220;2023-05-02T03:43:24;13.30;96.00
41324;DHT22;27073;51.128;4.220;2023-05-02T03:45:50;13.40;95.10
41324;DHT22;27073;51.128;4.220;2023-05-02T03:48:16;13.30;94.70
41324;DHT22;27073;51.128;4.220;2023-05-02T03:50:41;13.20;94.80
41324;DHT22;27073;51.128;4.220;2023-05-02T03:53:08;13.00;95.00
41324;DHT22;27073;51.128;4.220;2023-05-02T03:55:44;12.90;97.90
41324;DHT22;27073;51.128;4.220;2023-05-02T03:58:17;12.70;99.90
41324;DHT22;27073;51.128;4.220;2023-05-02T04:00:45;12.40;99.90
41324;DHT22;27073;51.128;4.220;2023-05-02T04:03:10;12.30;99.90
41324;DHT22;27073;51.128;4.220;2023-05-02T04:05:40;12.30;99.90
41324;DHT22;27073;51.128;4.220;2023-05-02T04:08:06;12.30;99.90
41324;DHT22;27073;51.128;4.220;2023-05-02T04:10:32;12.00;99.90
41324;DHT22;27073;51.128;4.220;2023-05-02T04:13:01;11.90;99.90
41324;DHT22;27073;51.128;4.220;2023-05-02T04:15:30;12.00;99.90
41324;DHT22;27073;51.128;4.220;2023-05-02T04:17:59;11.90;99.90
41324;DHT22;27073;51.128;4.220;2023-05-02T04:20:25;12.10;99.90
41324;DHT22;27073;51.128;4.220;2023-05-02T04:22:54;12.20;99.90
41324;DHT22;27073;51.128;4.220;2023-05-02T04:25:20;12.10;99.90
41324;DHT22;27073;51.128;4.220;2023-05-02T04:27:46;12.30;99.90
41324;DHT22;27073;51.128;4.220;2023-05-02T04:30:15;12.30;99.90
41324;DHT22;27073;51.128;4.220;2023-05-02T04:32:45;12.30;99.90
41324;DHT22;27073;51.128;4.220;2023-05-02T04:35:11;12.30;99.90
41324;DHT22;27073;51.128;4.220;2023-05-02T04:37:38;12.40;99.90
41324;DHT22;27073;51.128;4.220;2023-05-02T04:40:05;12.40;99.90
41324;DHT22;27073;51.128;4.220;2023-05-02T04:42:31;12.40;99.90
41324;DHT22;27073;51.128;4.220;2023-05-02T04:45:13;12.40;99.90
41324;DHT22;27073;51.128;4.220;2023-05-02T04:47:41;12.60;99.90
41324;DHT22;27073;51.128;4.220;2023-05-02T04:50:07;12.50;99.90
41324;DHT22;27073;51.128;4.220;2023-05-02T04:52:34;12.50;99.90
41324;DHT22;27073;51.128;4.220;2023-05-02T04:55:00;12.60;99.90
41324;DHT22;27073;51.128;4.220;2023-05-02T04:57:26;12.60;99.90
41324;DHT22;27073;51.128;4.220;2023-05-02T04:59:56;12.60;99.90
41324;DHT22;27073;51.128;4.220;2023-05-02T05:02:22;12.80;99.90
41324;DHT22;27073;51.128;4.220;2023-05-02T05:04:48;12.70;99.90
41324;DHT22;27073;51.128;4.220;2023-05-02T05:07:15;12.70;99.90
41324;DHT22;27073;51.128;4.220;2023-05-02T05:09:44;12.70;99.90
41324;DHT22;27073;51.128;4.220;2023-05-02T05:12:10;12.80;99.60
41324;DHT22;27073;51.128;4.220;2023-05-02T05:14:37;13.00;98.80
41324;DHT22;27073;51.128;4.220;2023-05-02T05:17:03;13.20;97.60
41324;DHT22;27073;51.128;4.220;2023-05-02T05:19:29;13.10;95.10
41324;DHT22;27073;51.128;4.220;2023-05-02T05:21:56;13.20;94.50
41324;DHT22;27073;51.128;4.220;2023-05-02T05:24:22;13.00;92.90
41324;DHT22;27073;51.128;4.220;2023-05-02T05:26:49;13.00;92.50
41324;DHT22;27073;51.128;4.220;2023-05-02T05:29:16;12.70;93.10
41324;DHT22;27073;51.128;4.220;2023-05-02T05:31:43;12.50;93.10
41324;DHT22;27073;51.128;4.220;2023-05-02T05:34:12;12.40;93.00
41324;DHT22;27073;51.128;4.220;2023-05-02T05:36:40;12.20;93.90
41324;DHT22;27073;51.128;4.220;2023-05-02T05:39:06;12.10;95.40
41324;DHT22;27073;51.128;4.220;2023-05-02T05:41:33;12.20;96.40
41324;DHT22;27073;51.128;4.220;2023-05-02T05:44:04;12.20;92.50
41324;DHT22;27073;51.128;4.220;2023-05-02T05:46:30;12.00;90.70
41324;DHT22;27073;51.128;4.220;2023-05-02T05:48:57;11.80;91.20
41324;DHT22;27073;51.128;4.220;2023-05-02T05:51:23;11.90;90.20
41324;DHT22;27073;51.128;4.220;2023-05-02T05:53:49;12.00;90.30
41324;DHT22;27073;51.128;4.220;2023-05-02T05:56:15;12.30;83.20
41324;DHT22;27073;51.128;4.220;2023-05-02T05:58:57;12.40;82.70
41324;DHT22;27073;51.128;4.220;2023-05-02T06:01:23;12.60;77.90
41324;DHT22;27073;51.128;4.220;2023-05-02T06:03:49;12.60;75.90
41324;DHT22;27073;51.128;4.220;2023-05-02T06:06:17;12.80;71.40
41324;DHT22;27073;51.128;4.220;2023-05-02T06:08:42;13.00;68.00
41324;DHT22;27073;51.128;4.220;2023-05-02T06:11:09;13.10;67.10
41324;DHT22;27073;51.128;4.220;2023-05-02T06:13:36;13.30;58.20
41324;DHT22;27073;51.128;4.220;2023-05-02T06:16:03;13.50;56.10
41324;DHT22;27073;51.128;4.220;2023-05-02T06:18:29;13.40;53.30
41324;DHT22;27073;51.128;4.220;2023-05-02T06:20:55;13.60;53.00
41324;DHT22;27073;51.128;4.220;2023-05-02T06:23:21;13.60;50.70
41324;DHT22;27073;51.128;4.220;2023-05-02T06:25:46;13.60;48.80
41324;DHT22;27073;51.128;4.220;2023-05-02T06:28:12;13.60;47.30
41324;DHT22;27073;51.128;4.220;2023-05-02T06:30:38;13.70;47.40
41324;DHT22;27073;51.128;4.220;2023-05-02T06:33:04;13.80;39.00
41324;DHT22;27073;51.128;4.220;2023-05-02T06:35:30;13.80;31.10
41324;DHT22;27073;51.128;4.220;2023-05-02T06:37:56;13.80;31.50
41324;DHT22;27073;51.128;4.220;2023-05-02T06:40:21;13.90;32.70
41324;DHT22;27073;51.128;4.220;2023-05-02T06:42:47;14.00;33.50
41324;DHT22;27073;51.128;4.220;2023-05-02T06:45:13;14.10;32.00
41324;DHT22;27073;51.128;4.220;2023-05-02T06:47:39;14.20;25.50
41324;DHT22;27073;51.128;4.220;2023-05-02T06:50:05;14.20;23.40
41324;DHT22;27073;51.128;4.220;2023-05-02T06:52:31;14.30;23.20
41324;DHT22;27073;51.128;4.220;2023-05-02T06:54:57;14.30;10.20
41324;DHT22;27073;51.128;4.220;2023-05-02T06:57:23;14.20;11.50
41324;DHT22;27073;51.128;4.220;2023-05-02T06:59:49;14.10;16.70
41324;DHT22;27073;51.128;4.220;2023-05-02T07:02:15;13.80;18.90
41324;DHT22;27073;51.128;4.220;2023-05-02T07:04:40;13.70;21.80
41324;DHT22;27073;51.128;4.220;2023-05-02T07:07:06;13.50;24.50
41324;DHT22;27073;51.128;4.220;2023-05-02T07:09:32;13.30;28.00
41324;DHT22;27073;51.128;4.220;2023-05-02T07:11:57;13.40;30.00
41324;DHT22;27073;51.128;4.220;2023-05-02T07:14:23;13.40;24.60
41324;DHT22;27073;51.128;4.220;2023-05-02T07:16:49;13.40;23.00
41324;DHT22;27073;51.128;4.220;2023-05-02T07:19:15;13.60;20.00
41324;DHT22;27073;51.128;4.220;2023-05-02T07:21:41;13.60;17.70
41324;DHT22;27073;51.128;4.220;2023-05-02T07:24:06;13.60;19.00
41324;DHT22;27073;51.128;4.220;2023-05-02T07:26:32;13.50;20.10
41324;DHT22;27073;51.128;4.220;2023-05-02T07:28:58;13.60;21.40
41324;DHT22;27073;51.128;4.220;2023-05-02T07:31:24;13.50;26.80
41324;DHT22;27073;51.128;4.220;2023-05-02T07:33:49;13.50;17.20
41324;DHT22;27073;51.128;4.220;2023-05-02T07:36:15;13.40;24.10
41324;DHT22;27073;51.128;4.220;2023-05-02T07:38:42;13.60;29.50
41324;DHT22;27073;51.128;4.220;2023-05-02T07:41:08;13.80;26.50
41324;DHT22;27073;51.128;4.220;2023-05-02T07:43:34;13.80;28.50
41324;DHT22;27073;51.128;4.220;2023-05-02T07:46:03;13.70;22.70
41324;DHT22;27073;51.128;4.220;2023-05-02T07:48:30;13.60;20.20
41324;DHT22;27073;51.128;4.220;2023-05-02T07:50:55;13.80;24.50
41324;DHT22;27073;51.128;4.220;2023-05-02T07:53:23;14.00;17.30
41324;DHT22;27073;51.128;4.220;2023-05-02T07:55:49;13.90;17.60
41324;DHT22;27073;51.128;4.220;2023-05-02T07:58:14;13.80;15.20
41324;DHT22;27073;51.128;4.220;2023-05-02T08:00:41;13.60;11.70
41324;DHT22;27073;51.128;4.220;2023-05-02T08:03:06;13.40;13.20
41324;DHT22;27073;51.128;4.220;2023-05-02T08:05:32;13.50;19.00
41324;DHT22;27073;51.128;4.220;2023-05-02T08:07:58;13.40;20.10
41324;DHT22;27073;51.128;4.220;2023-05-02T08:10:26;13.40;17.70
41324;DHT22;27073;51.128;4.220;2023-05-02T08:12:52;13.40;7.30
41324;DHT22;27073;51.128;4.220;2023-05-02T08:15:18;13.40;7.90
41324;DHT22;27073;51.128;4.220;2023-05-02T08:17:44;13.40;2.70
41324;DHT22;27073;51.128;4.220;2023-05-02T08:20:10;13.30;1.00
41324;DHT22;27073;51.128;4.220;2023-05-02T08:22:35;13.30;2.30
41324;DHT22;27073;51.128;4.220;2023-05-02T08:25:01;13.60;3.50
41324;DHT22;27073;51.128;4.220;2023-05-02T08:27:27;13.80;1.00
41324;DHT22;27073;51.128;4.220;2023-05-02T08:29:52;14.00;1.00
41324;DHT22;27073;51.128;4.220;2023-05-02T08:32:18;14.10;1.00
41324;DHT22;27073;51.128;4.220;2023-05-02T08:34:44;14.20;1.00
41324;DHT22;27073;51.128;4.220;2023-05-02T08:37:10;14.40;1.00
41324;DHT22;27073;51.128;4.220;2023-05-02T08:39:36;14.60;1.00
41324;DHT22;27073;51.128;4.220;2023-05-02T08:42:06;14.60;1.00
41324;DHT22;27073;51.128;4.220;2023-05-02T08:44:32;14.60;1.00
41324;DHT22;27073;51.128;4.220;2023-05-02T08:47:01;14.60;1.00
41324;DHT22;27073;51.128;4.220;2023-05-02T08:49:30;14.40;1.00
41324;DHT22;27073;51.128;4.220;2023-05-02T08:51:58;14.30;1.00
41324;DHT22;27073;51.128;4.220;2023-05-02T08:54:26;14.30;1.00
41324;DHT22;27073;51.128;4.220;2023-05-02T08:56:53;14.10;1.00
41324;DHT22;27073;51.128;4.220;2023-05-02T08:59:19;14.10;1.00
41324;DHT22;27073;51.128;4.220;2023-05-02T09:01:48;14.20;1.00
41324;DHT22;27073;51.128;4.220;2023-05-02T09:04:14;14.20;1.00
41324;DHT22;27073;51.128;4.220;2023-05-02T09:06:39;13.90;1.00
41324;DHT22;27073;51.128;4.220;2023-05-02T09:09:05;13.80;1.00
41324;DHT22;27073;51.128;4.220;2023-05-02T09:11:32;13.80;1.00
41324;DHT22;27073;51.128;4.220;2023-05-02T09:13:58;13.80;1.00
41324;DHT22;27073;51.128;4.220;2023-05-02T09:16:37;13.80;1.00
41324;DHT22;27073;51.128;4.220;2023-05-02T09:19:04;14.00;1.00
41324;DHT22;27073;51.128;4.220;2023-05-02T09:21:37;14.20;1.00
41324;DHT22;27073;51.128;4.220;2023-05-02T09:24:19;14.40;1.00
41324;DHT22;27073;51.128;4.220;2023-05-02T09:27:02;14.60;1.00
41324;DHT22;27073;51.128;4.220;2023-05-02T09:29:29;14.70;99.90
41324;DHT22;27073;51.128;4.220;2023-05-02T09:32:00;14.80;99.90
41324;DHT22;27073;51.128;4.220;2023-05-02T09:34:27;14.90;99.90
41324;DHT22;27073;51.128;4.220;2023-05-02T09:36:52;14.90;99.90
41324;DHT22;27073;51.128;4.220;2023-05-02T09:39:25;14.80;99.90
41324;DHT22;27073;51.128;4.220;2023-05-02T09:41:51;14.70;99.90
41324;DHT22;27073;51.128;4.220;2023-05-02T09:44:19;14.70;99.90
41324;DHT22;27073;51.128;4.220;2023-05-02T09:46:49;14.80;99.90
41324;DHT22;27073;51.128;4.220;2023-05-02T09:49:15;15.10;99.90
41324;DHT22;27073;51.128;4.220;2023-05-02T09:51:45;15.30;99.90
41324;DHT22;27073;51.128;4.220;2023-05-02T09:54:35;15.50;99.90
41324;DHT22;27073;51.128;4.220;2023-05-02T09:57:01;15.60;99.90
41324;DHT22;27073;51.128;4.220;2023-05-02T09:59:28;15.80;99.90
41324;DHT22;27073;51.128;4.220;2023-05-02T10:01:58;15.90;99.90
41324;DHT22;27073;51.128;4.220;2023-05-02T10:04:26;15.90;99.90
41324;DHT22;27073;51.128;4.220;2023-05-02T10:06:53;16.00;99.90
41324;DHT22;27073;51.128;4.220;2023-05-02T10:09:20;16.00;99.90
41324;DHT22;27073;51.128;4.220;2023-05-02T10:11:49;16.00;85.60
41324;DHT22;27073;51.128;4.220;2023-05-02T10:14:16;16.20;99.90
41324;DHT22;27073;51.128;4.220;2023-05-02T10:17:03;16.20;12.40
41324;DHT22;27073;51.128;4.220;2023-05-02T10:19:36;16.10;99.90
41324;DHT22;27073;51.128;4.220;2023-05-02T10:22:03;16.00;99.90
41324;DHT22;27073;51.128;4.220;2023-05-02T10:24:31;15.70;79.40
41324;DHT22;27073;51.128;4.220;2023-05-02T10:26:58;15.80;99.90
41324;DHT22;27073;51.128;4.220;2023-05-02T10:29:30;15.90;80.80
41324;DHT22;27073;51.128;4.220;2023-05-02T10:31:57;15.70;1.00
41324;DHT22;27073;51.128;4.220;2023-05-02T10:34:26;15.70;99.90
41324;DHT22;27073;51.128;4.220;2023-05-02T10:36:54;15.70;99.90
41324;DHT22;27073;51.128;4.220;2023-05-02T10:39:19;15.70;99.90
41324;DHT22;27073;51.128;4.220;2023-05-02T10:41:50;15.90;1.00
41324;DHT22;27073;51.128;4.220;2023-05-02T10:44:17;15.80;99.90
41324;DHT22;27073;51.128;4.220;2023-05-02T10:46:43;15.90;1.00
41324;DHT22;27073;51.128;4.220;2023-05-02T10:49:11;16.00;99.90
41324;DHT22;27073;51.128;4.220;2023-05-02T10:51:39;16.00;84.30
41324;DHT22;27073;51.128;4.220;2023-05-02T10:54:24;16.10;8.20
41324;DHT22;27073;51.128;4.220;2023-05-02T10:59:29;16.20;96.70
41324;DHT22;27073;51.128;4.220;2023-05-02T11:01:56;16.30;99.90
41324;DHT22;27073;51.128;4.220;2023-05-02T11:04:22;16.20;65.40
41324;DHT22;27073;51.128;4.220;2023-05-02T11:11:54;16.70;99.90
41324;DHT22;27073;51.128;4.220;2023-05-02T11:19:26;17.00;99.90
41324;DHT22;27073;51.128;4.220;2023-05-02T11:24:45;16.40;99.90
41324;DHT22;27073;51.128;4.220;2023-05-02T11:35:25;16.50;20.40
41324;DHT22;27073;51.128;4.220;2023-05-02T11:38:09;16.80;99.90
41324;DHT22;27073;51.128;4.220;2023-05-02T11:40:35;16.90;57.60
41324;DHT22;27073;51.128;4.220;2023-05-02T11:43:14;17.00;57.80
41324;DHT22;27073;51.128;4.220;2023-05-02T11:45:40;17.10;91.30
41324;DHT22;27073;51.128;4.220;2023-05-02T11:48:14;17.20;99.90
41324;DHT22;27073;51.128;4.220;2023-05-02T11:53:15;16.90;99.90
41324;DHT22;27073;51.128;4.220;2023-05-02T11:55:45;16.90;99.90
41324;DHT22;27073;51.128;4.220;2023-05-02T11:58:19;17.20;99.90
41324;DHT22;27073;51.128;4.220;2023-05-02T12:00:45;17.50;31.40
41324;DHT22;27073;51.128;4.220;2023-05-02T12:03:38;17.60;99.90
41324;DHT22;27073;51.128;4.220;2023-05-02T12:06:12;17.40;1.00
41324;DHT22;27073;51.128;4.220;2023-05-02T12:08:39;17.60;1.00
41324;DHT22;27073;51.128;4.220;2023-05-02T12:11:05;17.60;99.90
41324;DHT22;27073;51.128;4.220;2023-05-02T12:13:31;17.40;99.90
41324;DHT22;27073;51.128;4.220;2023-05-02T12:15:57;17.30;1.00
41324;DHT22;27073;51.128;4.220;2023-05-02T12:18:24;17.00;99.90
41324;DHT22;27073;51.128;4.220;2023-05-02T12:20:52;17.10;1.00
41324;DHT22;27073;51.128;4.220;2023-05-02T12:23:20;17.30;99.90
41324;DHT22;27073;51.128;4.220;2023-05-02T12:25:46;17.50;99.90
41324;DHT22;27073;51.128;4.220;2023-05-02T12:28:16;17.70;99.90
41324;DHT22;27073;51.128;4.220;2023-05-02T12:30:41;18.00;99.90
41324;DHT22;27073;51.128;4.220;2023-05-02T12:33:07;17.90;99.90
41324;DHT22;27073;51.128;4.220;2023-05-02T12:35:34;17.30;99.90
41324;DHT22;27073;51.128;4.220;2023-05-02T12:38:17;17.50;99.90
41324;DHT22;27073;51.128;4.220;2023-05-02T12:40:54;17.90;99.90
41324;DHT22;27073;51.128;4.220;2023-05-02T12:43:23;18.30;99.90
41324;DHT22;27073;51.128;4.220;2023-05-02T12:45:49;18.10;99.90
41324;DHT22;27073;51.128;4.220;2023-05-02T12:48:24;18.00;99.90
41324;DHT22;27073;51.128;4.220;2023-05-02T12:50:52;18.20;99.90
41324;DHT22;27073;51.128;4.220;2023-05-02T12:56:04;17.70;1.00
41324;DHT22;27073;51.128;4.220;2023-05-02T12:58:30;17.70;1.00
41324;DHT22;27073;51.128;4.220;2023-05-02T13:01:06;17.80;1.00
41324;DHT22;27073;51.128;4.220;2023-05-02T13:03:32;17.30;99.90
41324;DHT22;27073;51.128;4.220;2023-05-02T13:05:58;17.30;99.90
41324;DHT22;27073;51.128;4.220;2023-05-02T13:08:24;17.50;99.90
41324;DHT22;27073;51.128;4.220;2023-05-02T13:10:50;17.50;99.90
41324;DHT22;27073;51.128;4.220;2023-05-02T13:13:15;17.70;99.90
41324;DHT22;27073;51.128;4.220;2023-05-02T13:15:41;18.10;1.00
41324;DHT22;27073;51.128;4.220;2023-05-02T13:18:07;18.10;99.90
41324;DHT22;27073;51.128;4.220;2023-05-02T13:20:33;17.60;99.90
41324;DHT22;27073;51.128;4.220;2023-05-02T13:22:59;17.20;99.90
41324;DHT22;27073;51.128;4.220;2023-05-02T13:25:25;17.30;1.00
41324;DHT22;27073;51.128;4.220;2023-05-02T13:27:51;17.30;99.90
41324;DHT22;27073;51.128;4.220;2023-05-02T13:30:17;17.70;99.90
41324;DHT22;27073;51.128;4.220;2023-05-02T13:32:42;17.30;99.90
41324;DHT22;27073;51.128;4.220;2023-05-02T13:35:08;17.10;99.90
41324;DHT22;27073;51.128;4.220;2023-05-02T13:37:34;17.10;99.90
41324;DHT22;27073;51.128;4.220;2023-05-02T13:40:00;17.30;99.90
41324;DHT22;27073;51.128;4.220;2023-05-02T13:42:26;17.80;99.90
41324;DHT22;27073;51.128;4.220;2023-05-02T13:44:52;18.20;99.90
41324;DHT22;27073;51.128;4.220;2023-05-02T13:47:17;18.50;95.60
41324;DHT22;27073;51.128;4.220;2023-05-02T13:49:43;18.90;17.00
41324;DHT22;27073;51.128;4.220;2023-05-02T13:52:09;19.00;1.00
41324;DHT22;27073;51.128;4.220;2023-05-02T13:54:35;18.80;1.00
41324;DHT22;27073;51.128;4.220;2023-05-02T13:57:00;18.30;67.90
41324;DHT22;27073;51.128;4.220;2023-05-02T13:59:27;18.90;1.00
41324;DHT22;27073;51.128;4.220;2023-05-02T14:01:52;19.00;1.00
41324;DHT22;27073;51.128;4.220;2023-05-02T14:04:18;18.60;99.90
41324;DHT22;27073;51.128;4.220;2023-05-02T14:06:44;19.40;1.00
41324;DHT22;27073;51.128;4.220;2023-05-02T14:09:09;20.20;99.90
41324;DHT22;27073;51.128;4.220;2023-05-02T14:11:35;21.00;99.90
41324;DHT22;27073;51.128;4.220;2023-05-02T14:14:01;22.10;99.90
41324;DHT22;27073;51.128;4.220;2023-05-02T14:16:27;23.60;99.90
41324;DHT22;27073;51.128;4.220;2023-05-02T14:18:52;24.10;76.30
41324;DHT22;27073;51.128;4.220;2023-05-02T14:21:18;23.50;30.10
41324;DHT22;27073;51.128;4.220;2023-05-02T14:23:44;24.00;34.70
41324;DHT22;27073;51.128;4.220;2023-05-02T14:26:10;25.30;17.10
41324;DHT22;27073;51.128;4.220;2023-05-02T14:28:35;27.10;1.00
41324;DHT22;27073;51.128;4.220;2023-05-02T14:31:01;27.70;1.00
41324;DHT22;27073;51.128;4.220;2023-05-02T14:33:27;29.10;1.00
41324;DHT22;27073;51.128;4.220;2023-05-02T14:35:53;29.40;1.00
41324;DHT22;27073;51.128;4.220;2023-05-02T14:38:19;30.10;1.00
41324;DHT22;27073;51.128;4.220;2023-05-02T14:40:45;30.70;99.90
41324;DHT22;27073;51.128;4.220;2023-05-02T14:43:11;29.80;99.90
41324;DHT22;27073;51.128;4.220;2023-05-02T14:45:37;30.50;99.90
41324;DHT22;27073;51.128;4.220;2023-05-02T14:48:02;30.70;99.90
41324;DHT22;27073;51.128;4.220;2023-05-02T14:50:28;30.70;99.90
41324;DHT22;27073;51.128;4.220;2023-05-02T14:52:54;29.50;99.90
41324;DHT22;27073;51.128;4.220;2023-05-02T14:55:19;29.80;99.90
41324;DHT22;27073;51.128;4.220;2023-05-02T14:57:45;29.90;99.90
41324;DHT22;27073;51.128;4.220;2023-05-02T15:00:12;30.40;99.90
41324;DHT22;27073;51.128;4.220;2023-05-02T15:02:37;28.70;99.90
41324;DHT22;27073;51.128;4.220;2023-05-02T15:05:04;29.30;99.90
41324;DHT22;27073;51.128;4.220;2023-05-02T15:07:32;28.60;99.90
41324;DHT22;27073;51.128;4.220;2023-05-02T15:09:58;29.20;99.90
41324;DHT22;27073;51.128;4.220;2023-05-02T15:12:23;30.60;99.90
41324;DHT22;27073;51.128;4.220;2023-05-02T15:14:50;30.70;99.90
41324;DHT22;27073;51.128;4.220;2023-05-02T15:17:16;31.00;99.90
41324;DHT22;27073;51.128;4.220;2023-05-02T15:19:42;31.00;99.90
41324;DHT22;27073;51.128;4.220;2023-05-02T15:22:07;31.50;99.90
41324;DHT22;27073;51.128;4.220;2023-05-02T15:24:33;31.70;99.90
41324;DHT22;27073;51.128;4.220;2023-05-02T15:26:59;31.50;99.90
41324;DHT22;27073;51.128;4.220;2023-05-02T15:29:25;31.70;99.90
41324;DHT22;27073;51.128;4.220;2023-05-02T15:31:51;30.80;99.90
41324;DHT22;27073;51.128;4.220;2023-05-02T15:34:16;29.50;99.90
41324;DHT22;27073;51.128;4.220;2023-05-02T15:36:42;29.90;99.90
41324;DHT22;27073;51.128;4.220;2023-05-02T15:39:08;30.10;99.90
41324;DHT22;27073;51.128;4.220;2023-05-02T15:41:33;29.00;99.90
41324;DHT22;27073;51.128;4.220;2023-05-02T15:43:59;29.40;99.90
41324;DHT22;27073;51.128;4.220;2023-05-02T15:46:25;28.50;99.90
41324;DHT22;27073;51.128;4.220;2023-05-02T15:48:51;27.80;99.90
41324;DHT22;27073;51.128;4.220;2023-05-02T15:51:17;28.10;99.90
41324;DHT22;27073;51.128;4.220;2023-05-02T15:53:43;28.30;99.90
41324;DHT22;27073;51.128;4.220;2023-05-02T15:56:10;28.40;99.90
41324;DHT22;27073;51.128;4.220;2023-05-02T15:58:37;29.50;99.90
41324;DHT22;27073;51.128;4.220;2023-05-02T16:01:03;29.40;99.90
41324;DHT22;27073;51.128;4.220;2023-05-02T16:03:29;28.20;99.90
41324;DHT22;27073;51.128;4.220;2023-05-02T16:05:56;29.30;99.90
41324;DHT22;27073;51.128;4.220;2023-05-02T16:08:27;27.90;99.90
41324;DHT22;27073;51.128;4.220;2023-05-02T16:10:53;27.80;99.90
41324;DHT22;27073;51.128;4.220;2023-05-02T16:13:19;27.90;99.90
41324;DHT22;27073;51.128;4.220;2023-05-02T16:15:45;27.40;99.90
41324;DHT22;27073;51.128;4.220;2023-05-02T16:18:13;27.40;99.90
41324;DHT22;27073;51.128;4.220;2023-05-02T16:20:39;28.30;99.90
41324;DHT22;27073;51.128;4.220;2023-05-02T16:23:07;28.00;99.90